createdAt,value
2024-01-20T00:00:17.778Z,101603.34
2024-01-20T00:02:45.565Z,101606.09
2024-01-20T00:05:14.116Z,101591.06
2024-01-20T00:07:44.200Z,101595.00
2024-01-20T00:10:13.587Z,101599.09
2024-01-20T00:12:46.532Z,101598.97
2024-01-20T00:15:14.565Z,101601.88
2024-01-20T00:17:43.086Z,101602.44
2024-01-20T00:20:11.915Z,101595.13
2024-01-20T00:22:39.964Z,101606.03
2024-01-20T00:25:09.964Z,101612.06
2024-01-20T00:27:39.007Z,101601.81
2024-01-20T00:30:09.137Z,101613.41
2024-01-20T00:32:37.366Z,101610.34
2024-01-20T00:35:09.548Z,101608.81
2024-01-20T00:37:39.717Z,101606.13
2024-01-20T00:40:09.154Z,101620.47
2024-01-20T00:42:36.706Z,101621.13
2024-01-20T00:45:04.452Z,101621.13
2024-01-20T00:47:35.012Z,101626.59
2024-01-20T00:50:06.165Z,101621.97
2024-01-20T00:52:33.622Z,101613.38
2024-01-20T00:55:01.049Z,101628.38
2024-01-20T00:57:28.508Z,101636.50
2024-01-20T00:59:57.444Z,101634.59
2024-01-20T01:02:26.498Z,101633.00
2024-01-20T01:04:55.418Z,101642.66
2024-01-20T01:07:22.927Z,101649.03
2024-01-20T01:09:50.574Z,101647.75
2024-01-20T01:12:18.200Z,101649.78
2024-01-20T01:14:45.670Z,101661.38
2024-01-20T01:17:13.412Z,101658.19
2024-01-20T01:19:40.898Z,101675.28
2024-01-20T01:22:09.779Z,101671.75
2024-01-20T01:24:38.733Z,101675.06
2024-01-20T01:27:07.360Z,101675.47
2024-01-20T01:29:34.825Z,101686.16
2024-01-20T01:32:02.617Z,101682.28
2024-01-20T01:34:30.071Z,101682.53
2024-01-20T01:36:57.634Z,101681.63
2024-01-20T01:39:26.456Z,101679.19
2024-01-20T01:41:53.894Z,101689.75
2024-01-20T01:44:21.351Z,101696.13
2024-01-20T01:46:48.917Z,101695.06
2024-01-20T01:49:16.553Z,101690.25
2024-01-20T01:51:44.703Z,101690.59
2024-01-20T01:54:13.732Z,101688.13
2024-01-20T01:56:45.659Z,101688.03
2024-01-20T01:59:13.396Z,101684.41
2024-01-20T02:01:40.882Z,101696.06
2024-01-20T02:04:08.717Z,101701.41
2024-01-20T02:06:36.460Z,101682.31
2024-01-20T02:09:05.039Z,101687.81
2024-01-20T02:11:33.409Z,101691.00
2024-01-20T02:14:02.792Z,101690.34
2024-01-20T02:16:30.241Z,101686.28
2024-01-20T02:19:03.527Z,101686.03
2024-01-20T02:21:31.202Z,101674.97
2024-01-20T02:24:01.500Z,101684.53
2024-01-20T02:26:30.053Z,101686.53
2024-01-20T02:28:57.541Z,101688.53
2024-01-20T02:31:24.985Z,101688.22
2024-01-20T02:33:52.636Z,101685.84
2024-01-20T02:36:20.271Z,101685.31
2024-01-20T02:38:47.728Z,101681.09
2024-01-20T02:41:16.497Z,101681.22
2024-01-20T02:43:43.952Z,101697.66
2024-01-20T02:46:11.415Z,101690.94
2024-01-20T02:48:38.984Z,101698.56
2024-01-20T02:51:06.643Z,101688.47
2024-01-20T02:53:34.069Z,101687.88
2024-01-20T02:56:01.506Z,101694.63
2024-01-20T02:58:30.348Z,101688.13
2024-01-20T03:00:59.699Z,101699.50
2024-01-20T03:03:27.246Z,101698.22
2024-01-20T03:05:54.971Z,101694.91
2024-01-20T03:08:22.454Z,101697.31
2024-01-20T03:10:49.999Z,101703.81
2024-01-20T03:13:17.579Z,101704.50
2024-01-20T03:15:46.410Z,101711.22
2024-01-20T03:18:14.035Z,101706.31
2024-01-20T03:20:41.512Z,101708.06
2024-01-20T03:23:08.981Z,101713.50
2024-01-20T03:25:36.525Z,101713.03
2024-01-20T03:28:04.248Z,101706.09
2024-01-20T03:30:31.808Z,101713.72
2024-01-20T03:33:00.763Z,101717.09
2024-01-20T03:35:28.388Z,101722.63
2024-01-20T03:37:55.973Z,101716.97
2024-01-20T03:40:23.452Z,101704.94
2024-01-20T03:42:50.893Z,101720.34
2024-01-20T03:45:18.448Z,101732.63
2024-01-20T03:47:45.925Z,101724.75
2024-01-20T03:50:14.861Z,101727.25
2024-01-20T03:52:46.278Z,101730.44
2024-01-20T03:55:14.413Z,101729.19
2024-01-20T03:57:42.029Z,101753.06
2024-01-20T04:00:11.453Z,101750.78
2024-01-20T04:02:39.123Z,101753.59
2024-01-20T04:05:07.824Z,101750.63
2024-01-20T04:07:36.634Z,101757.16
2024-01-20T04:10:04.450Z,101757.50
2024-01-20T04:12:32.089Z,101744.09
2024-01-20T04:14:59.706Z,101746.16
2024-01-20T04:17:27.381Z,101743.06
2024-01-20T04:19:55.883Z,101756.94
2024-01-20T04:22:23.815Z,101756.19
2024-01-20T04:24:52.559Z,101750.50
2024-01-20T04:27:20.045Z,101750.06
2024-01-20T04:29:47.525Z,101747.78
2024-01-20T04:32:14.988Z,101763.16
2024-01-20T04:34:42.473Z,101756.94
2024-01-20T04:37:09.950Z,101767.38
2024-01-20T04:39:39.265Z,101765.03
2024-01-20T04:42:08.485Z,101759.72
2024-01-20T04:44:35.931Z,101760.22
2024-01-20T04:47:03.382Z,101771.88
2024-01-20T04:49:30.945Z,101772.56
2024-01-20T04:52:02.918Z,101777.25
2024-01-20T04:54:30.850Z,101770.31
2024-01-20T04:56:58.669Z,101772.16
2024-01-20T04:59:27.529Z,101774.19
2024-01-20T05:01:55.054Z,101770.56
2024-01-20T05:04:22.740Z,101774.91
2024-01-20T05:06:50.523Z,101776.72
2024-01-20T05:09:18.081Z,101781.84
2024-01-20T05:11:45.553Z,101788.50
2024-01-20T05:14:13.020Z,101784.25
2024-01-20T05:16:41.806Z,101783.50
2024-01-20T05:19:09.643Z,101785.69
2024-01-20T05:21:38.727Z,101784.06
2024-01-20T05:24:06.522Z,101792.38
2024-01-20T05:26:34.422Z,101797.19
2024-01-20T05:29:01.928Z,101801.44
2024-01-20T05:31:32.730Z,101802.06
2024-01-20T05:34:02.073Z,101798.25
2024-01-20T05:36:29.889Z,101806.53
2024-01-20T05:38:57.414Z,101805.25
2024-01-20T05:41:24.981Z,101812.94
2024-01-20T05:43:52.472Z,101807.00
2024-01-20T05:46:21.260Z,101818.81
2024-01-20T05:48:49.075Z,101822.34
2024-01-20T05:51:18.098Z,101823.91
2024-01-20T05:53:45.548Z,101816.44
2024-01-20T05:56:13.839Z,101808.75
2024-01-20T05:58:41.792Z,101807.38
2024-01-20T06:01:10.972Z,101805.53
2024-01-20T06:03:38.709Z,101802.81
2024-01-20T06:06:07.951Z,101806.44
2024-01-20T06:08:38.050Z,101811.84
2024-01-20T06:11:05.799Z,101816.88
2024-01-20T06:13:33.394Z,101806.56
2024-01-20T06:16:00.861Z,101811.41
2024-01-20T06:18:28.837Z,101815.41
2024-01-20T06:20:56.364Z,101803.59
2024-01-20T06:23:23.964Z,101812.63
2024-01-20T06:25:53.290Z,101822.22
2024-01-20T06:28:22.572Z,101822.63
2024-01-20T06:30:50.905Z,101830.63
2024-01-20T06:33:18.674Z,101833.75
2024-01-20T06:35:46.484Z,101840.50
2024-01-20T06:38:13.952Z,101842.97
2024-01-20T06:40:41.404Z,101843.44
2024-01-20T06:43:10.481Z,101847.31
2024-01-20T06:45:38.044Z,101848.63
2024-01-20T06:48:06.689Z,101838.56
2024-01-20T06:50:34.411Z,101844.00
2024-01-20T06:53:01.910Z,101851.78
2024-01-20T06:55:29.346Z,101854.91
2024-01-20T06:57:56.806Z,101853.41
2024-01-20T07:00:25.651Z,101860.59
2024-01-20T07:02:53.279Z,101852.69
2024-01-20T07:05:20.849Z,101857.53
2024-01-20T07:07:48.329Z,101853.91
2024-01-20T07:10:16.492Z,101854.16
2024-01-20T07:12:43.996Z,101841.13
2024-01-20T07:15:12.383Z,101858.59
2024-01-20T07:17:41.228Z,101864.09
2024-01-20T07:20:09.556Z,101879.91
2024-01-20T07:22:37.012Z,101872.91
2024-01-20T07:25:04.702Z,101878.63
2024-01-20T07:27:32.234Z,101877.97
2024-01-20T07:29:59.774Z,101881.06
2024-01-20T07:32:27.343Z,101893.13
2024-01-20T07:34:56.191Z,101890.97
2024-01-20T07:37:24.146Z,101890.56
2024-01-20T07:39:51.713Z,101899.41
2024-01-20T07:42:19.259Z,101902.38
2024-01-20T07:44:46.754Z,101897.66
2024-01-20T07:47:15.472Z,101898.97
2024-01-20T07:49:43.231Z,101909.78
2024-01-20T07:52:12.145Z,101903.81
2024-01-20T07:54:39.696Z,101911.25
2024-01-20T07:57:07.289Z,101910.47
2024-01-20T07:59:34.804Z,101917.84
2024-01-20T08:02:02.266Z,101912.22
2024-01-20T08:04:29.822Z,101914.72
2024-01-20T08:06:57.375Z,101923.44
2024-01-20T08:09:26.354Z,101934.66
2024-01-20T08:11:53.914Z,101932.44
2024-01-20T08:14:21.433Z,101945.72
2024-01-20T08:16:49.054Z,101938.25
2024-01-20T08:19:16.596Z,101937.56
2024-01-20T08:21:44.307Z,101934.97
2024-01-20T08:24:11.908Z,101943.03
2024-01-20T08:26:40.731Z,101928.84
2024-01-20T08:29:08.263Z,101941.06
2024-01-20T08:31:35.728Z,101933.69
2024-01-20T08:34:03.788Z,101935.00
2024-01-20T08:36:31.556Z,101929.13
2024-01-20T08:38:59.194Z,101943.56
2024-01-20T08:41:26.737Z,101945.94
2024-01-20T08:43:55.823Z,101940.66
2024-01-20T08:46:23.264Z,101944.44
2024-01-20T08:48:50.777Z,101954.75
2024-01-20T08:51:18.416Z,101929.97
2024-01-20T08:53:45.937Z,101930.97
2024-01-20T08:56:13.450Z,101931.50
2024-01-20T08:58:40.973Z,101936.84
2024-01-20T09:01:10.177Z,101935.84
2024-01-20T09:03:37.874Z,101956.19
2024-01-20T09:06:06.105Z,101956.38
2024-01-20T09:08:33.606Z,101947.00
2024-01-20T09:11:01.149Z,101944.94
2024-01-20T09:13:28.658Z,101952.66
2024-01-20T09:15:56.511Z,101984.59
2024-01-20T09:18:25.967Z,101965.78
2024-01-20T09:20:53.634Z,101978.78
2024-01-20T09:23:21.193Z,101977.59
2024-01-20T09:25:49.146Z,101991.03
2024-01-20T09:28:16.719Z,101991.38
2024-01-20T09:30:44.297Z,101995.38
2024-01-20T09:33:12.029Z,101988.25
2024-01-20T09:35:40.904Z,102002.22
2024-01-20T09:38:08.443Z,102009.22
2024-01-20T09:40:36.583Z,102011.72
2024-01-20T09:43:05.257Z,102009.78
2024-01-20T09:45:35.369Z,102011.63
2024-01-20T09:48:03.095Z,102016.69
2024-01-20T09:50:30.683Z,102008.06
2024-01-20T09:53:04.980Z,102033.00
2024-01-20T09:55:32.477Z,102030.16
2024-01-20T09:58:01.825Z,102033.53
2024-01-20T10:00:30.379Z,102031.31
2024-01-20T10:02:58.883Z,102007.53
2024-01-20T10:05:26.630Z,102020.31
2024-01-20T10:07:54.060Z,102018.22
2024-01-20T10:10:23.808Z,102021.47
2024-01-20T10:12:52.442Z,102018.06
2024-01-20T10:15:24.050Z,102026.06
2024-01-20T10:17:51.640Z,102024.44
2024-01-20T10:20:22.974Z,102035.84
2024-01-20T10:22:51.645Z,102040.22
2024-01-20T10:25:21.083Z,102037.03
2024-01-20T10:27:52.108Z,102029.00
2024-01-20T10:30:22.000Z,102037.50
2024-01-20T10:33:03.369Z,102037.47
2024-01-20T10:35:36.629Z,102047.09
2024-01-20T10:38:14.488Z,102038.56
2024-01-20T10:40:43.948Z,102047.22
2024-01-20T10:43:15.764Z,102043.91
2024-01-20T10:45:47.692Z,102050.25
2024-01-20T10:48:18.335Z,102041.28
2024-01-20T10:50:47.692Z,102055.41
2024-01-20T10:53:15.218Z,102046.00
2024-01-20T10:55:44.314Z,102049.97
2024-01-20T10:58:14.679Z,102045.38
2024-01-20T11:00:43.335Z,102046.22
2024-01-20T11:03:11.083Z,102042.63
2024-01-20T11:05:39.612Z,102043.28
2024-01-20T11:08:09.092Z,102041.41
2024-01-20T11:10:40.953Z,102038.47
2024-01-20T11:13:09.681Z,102031.28
2024-01-20T11:15:39.434Z,102031.56
2024-01-20T11:18:19.910Z,102028.34
2024-01-20T11:21:00.093Z,102044.84
2024-01-20T11:23:28.074Z,102033.50
2024-01-20T11:25:56.447Z,102036.44
2024-01-20T11:28:25.417Z,102036.16
2024-01-20T11:30:54.363Z,102020.88
2024-01-20T11:33:22.109Z,102029.44
2024-01-20T11:35:49.659Z,102012.53
2024-01-20T11:38:17.683Z,102019.88
2024-01-20T11:40:45.490Z,102018.06
2024-01-20T11:43:13.273Z,102016.81
2024-01-20T11:45:40.978Z,102019.34
2024-01-20T11:48:14.004Z,102014.28
2024-01-20T11:50:42.888Z,102012.44
2024-01-20T11:53:10.517Z,102022.69
2024-01-20T11:55:37.987Z,102017.44
2024-01-20T11:58:05.488Z,102019.84
2024-01-20T12:00:33.015Z,102018.47
2024-01-20T12:03:01.703Z,102008.75
2024-01-20T12:05:30.644Z,102014.41
2024-01-20T12:07:58.245Z,102013.13
2024-01-20T12:10:25.906Z,102014.22
2024-01-20T12:12:53.419Z,102017.09
2024-01-20T12:15:20.950Z,102022.13
2024-01-20T12:17:48.560Z,102023.44
2024-01-20T12:20:16.122Z,102022.22
2024-01-20T12:22:44.932Z,102020.78
2024-01-20T12:25:13.517Z,102020.19
2024-01-20T12:27:42.955Z,102021.28
2024-01-20T12:30:11.252Z,102015.72
2024-01-20T12:32:38.739Z,102023.91
2024-01-20T12:35:07.242Z,102028.88
2024-01-20T12:37:34.679Z,102029.31
2024-01-20T12:40:06.826Z,102023.59
2024-01-20T12:42:34.594Z,102034.63
2024-01-20T12:45:02.255Z,102024.53
2024-01-20T12:47:29.866Z,102021.34
2024-01-20T12:49:57.474Z,102022.16
2024-01-20T12:52:25.135Z,102028.06
2024-01-20T12:54:54.524Z,102025.19
2024-01-20T12:57:23.950Z,102014.28
2024-01-20T12:59:51.500Z,102019.97
2024-01-20T13:02:18.976Z,102019.84
2024-01-20T13:04:46.511Z,102014.47
2024-01-20T13:07:15.107Z,102026.50
2024-01-20T13:09:43.823Z,102023.44
2024-01-20T13:12:11.391Z,102015.34
2024-01-20T13:14:40.395Z,102029.44
2024-01-20T13:17:07.941Z,102021.00
2024-01-20T13:19:35.523Z,102026.22
2024-01-20T13:22:03.165Z,102031.44
2024-01-20T13:24:30.628Z,102020.31
2024-01-20T13:26:59.032Z,102017.47
2024-01-20T13:29:26.913Z,102028.13
2024-01-20T13:31:55.705Z,102032.06
2024-01-20T13:34:23.266Z,102035.06
2024-01-20T13:36:50.743Z,102038.25
2024-01-20T13:39:18.235Z,102030.91
2024-01-20T13:41:46.164Z,102038.03
2024-01-20T13:44:13.725Z,102040.34
2024-01-20T13:46:41.173Z,102041.97
2024-01-20T13:49:12.057Z,102045.28
2024-01-20T13:51:41.018Z,102063.81
2024-01-20T13:54:08.909Z,102061.91
2024-01-20T13:56:36.441Z,102064.31
2024-01-20T13:59:04.455Z,102062.13
2024-01-20T14:01:31.954Z,102072.94
2024-01-20T14:04:01.051Z,102067.59
2024-01-20T14:06:30.156Z,102064.56
2024-01-20T14:08:57.695Z,102062.13
2024-01-20T14:11:25.179Z,102074.69
2024-01-20T14:13:52.643Z,102070.38
2024-01-20T14:16:20.162Z,102074.66
2024-01-20T14:18:48.142Z,102072.63
2024-01-20T14:21:15.696Z,102084.22
2024-01-20T14:23:44.571Z,102090.41
2024-01-20T14:26:12.023Z,102090.50
2024-01-20T14:28:39.755Z,102089.97
2024-01-20T14:31:08.926Z,102097.00
2024-01-20T14:33:36.451Z,102090.50
2024-01-20T14:36:04.093Z,102092.47
2024-01-20T14:38:31.564Z,102097.03
2024-01-20T14:41:00.329Z,102097.31
2024-01-20T14:43:27.771Z,102105.66
2024-01-20T14:45:55.229Z,102114.84
2024-01-20T14:48:22.811Z,102119.25
2024-01-20T14:50:50.383Z,102115.84
2024-01-20T14:53:19.944Z,102113.66
2024-01-20T14:55:47.411Z,102110.41
2024-01-20T14:58:16.194Z,102112.31
2024-01-20T15:00:44.497Z,102118.44
2024-01-20T15:03:12.282Z,102130.91
2024-01-20T15:05:39.878Z,102129.09
2024-01-20T15:08:07.816Z,102128.47
2024-01-20T15:10:35.286Z,102137.53
2024-01-20T15:13:04.084Z,102134.88
2024-01-20T15:15:32.912Z,102131.00
2024-01-20T15:18:00.743Z,102138.28
2024-01-20T15:20:28.455Z,102140.34
2024-01-20T15:22:55.950Z,102148.88
2024-01-20T15:25:24.121Z,102160.69
2024-01-20T15:27:51.610Z,102167.00
2024-01-20T15:30:19.423Z,102171.13
2024-01-20T15:32:48.256Z,102179.53
2024-01-20T15:35:15.761Z,102179.28
2024-01-20T15:37:43.206Z,102181.19
2024-01-20T15:40:11.507Z,102185.34
2024-01-20T15:42:39.184Z,102188.31
2024-01-20T15:45:07.360Z,102190.88
2024-01-20T15:47:34.890Z,102188.88
2024-01-20T15:50:04.954Z,102192.63
2024-01-20T15:52:32.740Z,102199.31
2024-01-20T15:55:00.445Z,102201.06
2024-01-20T15:57:27.985Z,102206.53
2024-01-20T15:59:55.466Z,102201.47
2024-01-20T16:02:23.124Z,102209.69
2024-01-20T16:04:51.108Z,102216.03
2024-01-20T16:07:20.162Z,102214.63
2024-01-20T16:09:47.807Z,102205.78
2024-01-20T16:12:15.371Z,102211.94
2024-01-20T16:14:42.857Z,102221.38
2024-01-20T16:17:10.511Z,102223.16
2024-01-20T16:19:38.011Z,102229.72
2024-01-20T16:22:05.523Z,102227.22
2024-01-20T16:24:34.362Z,102222.69
2024-01-20T16:27:01.897Z,102222.34
2024-01-20T16:29:29.603Z,102221.75
2024-01-20T16:31:57.364Z,102226.91
2024-01-20T16:34:24.974Z,102240.53
2024-01-20T16:36:54.012Z,102242.41
2024-01-20T16:39:21.881Z,102245.72
2024-01-20T16:41:51.031Z,102239.63
2024-01-20T16:44:19.454Z,102258.06
2024-01-20T16:46:51.728Z,102247.31
2024-01-20T16:49:20.246Z,102247.91
2024-01-20T16:51:48.028Z,102244.28
2024-01-20T16:54:15.671Z,102247.72
2024-01-20T16:56:43.515Z,102252.38
2024-01-20T16:59:12.499Z,102269.31
2024-01-20T17:01:40.054Z,102266.00
2024-01-20T17:04:07.818Z,102271.13
2024-01-20T17:06:35.584Z,102272.59
2024-01-20T17:09:04.792Z,102278.34
2024-01-20T17:11:32.390Z,102275.59
2024-01-20T17:14:03.859Z,102292.06
2024-01-20T17:16:36.026Z,102291.31
2024-01-20T17:19:05.105Z,102290.72
2024-01-20T17:21:34.424Z,102294.97
2024-01-20T17:24:02.029Z,102291.72
2024-01-20T17:26:30.698Z,102305.53
2024-01-20T17:29:02.250Z,102304.78
2024-01-20T17:31:33.965Z,102310.41
2024-01-20T17:34:04.710Z,102314.94
2024-01-20T17:36:33.186Z,102316.09
2024-01-20T17:39:01.208Z,102313.81
2024-01-20T17:41:28.730Z,102333.09
2024-01-20T17:43:56.242Z,102324.00
2024-01-20T17:46:23.801Z,102325.81
2024-01-20T17:48:51.312Z,102330.84
2024-01-20T17:51:20.186Z,102335.34
2024-01-20T17:53:47.650Z,102346.59
2024-01-20T17:56:15.439Z,102337.25
2024-01-20T17:58:42.890Z,102334.66
2024-01-20T18:01:12.045Z,102338.84
2024-01-20T18:03:40.446Z,102339.88
2024-01-20T18:06:08.921Z,102344.38
2024-01-20T18:08:37.967Z,102346.41
2024-01-20T18:11:05.749Z,102345.25
2024-01-20T18:13:33.502Z,102353.88
2024-01-20T18:16:00.945Z,102356.28
2024-01-20T18:18:28.583Z,102356.84
2024-01-20T18:20:56.187Z,102359.00
2024-01-20T18:23:23.812Z,102361.16
2024-01-20T18:25:52.589Z,102356.13
2024-01-20T18:28:20.104Z,102355.16
2024-01-20T18:30:48.481Z,102361.13
2024-01-20T18:33:16.111Z,102378.28
2024-01-20T18:35:43.770Z,102366.03
2024-01-20T18:38:11.291Z,102373.88
2024-01-20T18:40:38.745Z,102365.81
2024-01-20T18:43:07.910Z,102371.22
2024-01-20T18:45:35.446Z,102367.78
2024-01-20T18:48:03.486Z,102376.19
2024-01-20T18:50:31.070Z,102376.19
2024-01-20T18:52:58.496Z,102376.78
2024-01-20T18:55:25.965Z,102388.28
2024-01-20T18:57:53.413Z,102382.13
2024-01-20T19:00:22.520Z,102391.47
2024-01-20T19:02:50.519Z,102399.09
2024-01-20T19:05:18.107Z,102400.78
2024-01-20T19:07:45.636Z,102399.41
2024-01-20T19:10:13.512Z,102404.81
2024-01-20T19:12:41.704Z,102401.38
2024-01-20T19:15:10.030Z,102412.41
2024-01-20T19:17:39.426Z,102403.88
2024-01-20T19:20:10.444Z,102411.66
2024-01-20T19:22:38.139Z,102409.66
2024-01-20T19:25:07.465Z,102413.69
2024-01-20T19:27:34.968Z,102418.88
2024-01-20T19:30:02.513Z,102409.81
2024-01-20T19:32:30.059Z,102428.16
2024-01-20T19:34:58.907Z,102436.09
2024-01-20T19:37:26.404Z,102424.75
2024-01-20T19:39:54.119Z,102431.97
2024-01-20T19:42:21.832Z,102425.75
2024-01-20T19:44:49.320Z,102425.13
2024-01-20T19:47:16.829Z,102423.50
2024-01-20T19:49:44.597Z,102427.34
2024-01-20T19:52:15.157Z,102440.00
2024-01-20T19:54:42.713Z,102431.34
2024-01-20T19:57:10.361Z,102439.44
2024-01-20T19:59:38.242Z,102448.41
2024-01-20T20:02:06.158Z,102454.44
2024-01-20T20:04:33.748Z,102453.72
2024-01-20T20:07:05.405Z,102457.53
2024-01-20T20:09:34.421Z,102451.81
2024-01-20T20:12:01.952Z,102459.06
2024-01-20T20:14:29.408Z,102449.84
2024-01-20T20:16:56.883Z,102455.69
2024-01-20T20:19:24.462Z,102445.72
2024-01-20T20:21:53.693Z,102439.53
2024-01-20T20:24:21.322Z,102446.84
2024-01-20T20:26:56.954Z,102446.03
2024-01-20T20:29:25.276Z,102444.81
2024-01-20T20:31:52.919Z,102451.97
2024-01-20T20:34:20.896Z,102452.69
2024-01-20T20:36:48.594Z,102451.25
2024-01-20T20:39:16.480Z,102453.94
2024-01-20T20:41:44.629Z,102444.06
2024-01-20T20:44:14.336Z,102452.66
2024-01-20T20:46:42.104Z,102456.31
2024-01-20T20:49:09.821Z,102455.22
2024-01-20T20:51:37.528Z,102451.19
2024-01-20T20:54:05.274Z,102451.91
2024-01-20T20:56:32.813Z,102455.81
2024-01-20T20:59:00.562Z,102464.59
2024-01-20T21:01:29.496Z,102465.13
2024-01-20T21:03:57.640Z,102463.66
2024-01-20T21:06:25.796Z,102463.28
2024-01-20T21:08:54.803Z,102473.22
2024-01-20T21:11:22.692Z,102470.16
2024-01-20T21:13:50.170Z,102474.72
2024-01-20T21:16:18.382Z,102463.66
2024-01-20T21:18:47.335Z,102460.84
2024-01-20T21:21:15.246Z,102461.69
2024-01-20T21:23:42.725Z,102446.28
2024-01-20T21:26:10.689Z,102448.53
2024-01-20T21:28:38.368Z,102448.69
2024-01-20T21:31:08.081Z,102452.25
2024-01-20T21:33:35.749Z,102453.56
2024-01-20T21:36:05.189Z,102458.50
2024-01-20T21:38:32.653Z,102456.59
2024-01-20T21:41:00.318Z,102447.97
2024-01-20T21:43:27.785Z,102456.56
2024-01-20T21:45:55.416Z,102451.97
2024-01-20T21:48:22.947Z,102456.22
2024-01-20T21:50:50.605Z,102456.00
2024-01-20T21:53:19.594Z,102452.94
2024-01-20T21:55:47.374Z,102449.41
2024-01-20T21:58:14.960Z,102443.31
2024-01-20T22:00:43.786Z,102453.09
2024-01-20T22:03:11.568Z,102451.16
2024-01-20T22:05:39.612Z,102450.84
2024-01-20T22:08:07.776Z,102450.34
2024-01-20T22:10:36.668Z,102450.78
2024-01-20T22:13:04.409Z,102447.88
2024-01-20T22:15:31.989Z,102458.06
2024-01-20T22:17:59.681Z,102455.44
2024-01-20T22:20:27.292Z,102454.16
2024-01-20T22:22:54.789Z,102454.94
2024-01-20T22:25:22.259Z,102460.94
2024-01-20T22:27:51.137Z,102455.28
2024-01-20T22:30:18.842Z,102459.34
2024-01-20T22:32:47.122Z,102460.00
2024-01-20T22:35:14.608Z,102456.88
2024-01-20T22:37:42.083Z,102455.19
2024-01-20T22:40:11.207Z,102456.63
2024-01-20T22:42:38.760Z,102453.44
2024-01-20T22:45:11.083Z,102454.88
2024-01-20T22:47:40.329Z,102450.22
2024-01-20T22:50:08.394Z,102454.06
2024-01-20T22:52:35.941Z,102455.44
2024-01-20T22:55:03.663Z,102454.53
2024-01-20T22:57:31.373Z,102456.13
2024-01-20T22:59:58.885Z,102468.47
2024-01-20T23:02:27.700Z,102462.63
2024-01-20T23:04:56.033Z,102456.63
2024-01-20T23:07:23.941Z,102468.63
2024-01-20T23:09:51.523Z,102475.38
2024-01-20T23:12:20.720Z,102464.75
2024-01-20T23:14:48.564Z,102459.09
2024-01-20T23:17:17.451Z,102456.22
2024-01-20T23:19:46.259Z,102463.03
2024-01-20T23:22:13.739Z,102465.59
2024-01-20T23:24:43.210Z,102463.00
2024-01-20T23:27:10.916Z,102459.97
2024-01-20T23:29:38.430Z,102451.25
2024-01-20T23:32:06.109Z,102450.13
2024-01-20T23:34:34.168Z,102440.78
2024-01-20T23:37:02.936Z,102439.88
2024-01-20T23:39:30.470Z,102438.03
2024-01-20T23:41:58.078Z,102446.13
2024-01-20T23:44:25.661Z,102444.94
2024-01-20T23:46:55.446Z,102448.53
2024-01-20T23:49:22.985Z,102449.84
2024-01-20T23:51:50.639Z,102457.72
2024-01-20T23:54:19.887Z,102451.22
2024-01-20T23:56:47.833Z,102454.19
2024-01-20T23:59:15.444Z,102439.25
